Latest Weather Observations for Williamtown

IDN60801

Issued at 11:22 pm EST Monday 20 May 2019 (issued every 10 minutes, with the page automatically refreshed every 10 minutes)

About weather observations | Map of weather stations | Latest weather observations for NSW | Other Formats
Station Details ID: 061078 Name: WILLIAMTOWN RAAF Lat: -32.79 Lon: 151.84 Height: 7.5 m
Data from the previous 72 hours. | See also: Recent months at Williamtown
Date/Time
EST
Temp
°C
App
Temp
°C
Dew
Point
°C
Rel
Hum
%
Delta-T
°C
Wind Press
QNH
hPa
Press
MSL
hPa
Rain since
9am
mm
Dir  Spd
km/h
Gust
km/h
Spd
kts
Gust
kts
20/11:00pm 13.2 13.1 10.9 86 1.2 NW 2 6 1 3 1025.2 1025.2 0.0
20/10:30pm 15.6 14.6 12.4 81 1.8 N 9 13 5 7 1025.3 1025.3 0.0
20/10:00pm 14.5 13.2 12.4 87 1.1 N 11 15 6 8 1025.4 1025.4 0.0
20/09:30pm 15.0 13.5 13.2 89 1.0 N 13 15 7 8 1025.5 1025.5 0.0
20/09:00pm 13.7 13.2 12.6 93 0.6 NNE 7 11 4 6 1025.4 1025.4 0.0
20/08:30pm 14.2 15.1 12.8 91 0.8 CALM 0 0 0 0 1025.4 1025.4 0.0
20/08:00pm 15.0 14.8 12.9 87 1.2 ESE 6 7 3 4 1025.1 1025.1 0.0
20/07:30pm 15.2 14.8 12.9 86 1.3 NE 7 9 4 5 1025.0 1025.0 0.0
20/07:00pm 14.9 14.6 12.6 86 1.3 SSE 6 9 3 5 1024.9 1024.9 0.0
20/06:30pm 15.2 14.6 11.8 80 1.8 NNE 6 9 3 5 1024.6 1024.6 0.0
20/06:00pm 17.1 16.7 13.0 77 2.3 NNE 7 9 4 5 1024.4 1024.4 0.0
20/05:30pm 18.8 17.7 13.2 70 3.2 NNE 11 13 6 7 1024.3 1024.3 0.0
20/05:00pm 19.3 18.5 13.0 67 3.5 NE 9 11 5 6 1024.2 1024.2 0.0
20/04:30pm 20.8 20.1 13.3 62 4.3 NE 9 13 5 7 1024.0 1024.0 0.0
20/04:00pm 21.9 21.2 13.3 58 4.9 NE 9 11 5 6 1024.1 1024.1 0.0
20/03:30pm 22.0 20.9 13.1 57 5.1 NNE 11 13 6 7 1024.3 1024.3 0.0
20/03:00pm 21.8 21.5 13.4 59 4.8 NNW 7 11 4 6 1024.3 1024.3 0.0
20/02:30pm 22.1 23.0 14.0 60 4.7 NNE 2 9 1 5 1024.5 1024.5 0.0
20/02:00pm 21.6 21.4 13.5 60 4.6 NNE 7 11 4 6 1024.6 1024.6 0.0
20/01:30pm 20.8 20.4 13.0 61 4.4 NNW 7 9 4 5 1024.9 1024.9 0.0
20/01:00pm 20.7 19.4 12.4 59 4.6 N 11 15 6 8 1025.3 1025.3 0.0
20/12:30pm 20.7 19.6 13.2 62 4.3 NW 11 17 6 9 1025.7 1025.7 0.0
20/12:00pm 20.3 19.3 13.5 65 3.9 NNW 11 13 6 7 1026.3 1026.3 0.0
20/11:30am 19.6 18.9 13.3 67 3.6 NNW 9 15 5 8 1026.8 1026.8 0.0
20/11:00am 18.9 17.5 13.3 70 3.2 WNW 13 19 7 10 1027.5 1027.5 0.0
20/10:30am 17.9 17.2 13.2 74 2.6 WNW 9 13 5 7 1027.9 1027.9 0.0
20/10:00am 16.9 15.4 13.2 79 2.1 WNW 13 19 7 10 1028.3 1028.3 0.0
20/09:30am 16.1 14.9 12.7 80 1.9 NW 11 17 6 9 1028.3 1028.3 0.0
20/09:00am 14.8 13.9 12.7 87 1.1 NW 9 11 5 6 1028.3 1028.3 0.0
20/08:30am 13.9 13.1 13.0 94 0.5 NW 9 11 5 6 1028.2 1028.2 0.0
20/08:00am 11.5 10.1 11.0 97 0.3 NW 9 11 5 6 1028.1 1028.1 0.0
20/07:30am 10.5 10.6 10.2 98 0.2 CALM 0 0 0 0 1027.8 1027.8 0.0
20/07:00am 10.2 10.2 9.7 97 0.2 CALM 0 2 0 1 1027.6 1027.6 0.0
20/06:30am 9.8 8.3 9.3 97 0.2 NW 7 11 4 6 1027.4 1027.4 0.0
20/06:00am 10.3 9.6 10.0 98 0.2 NW 4 7 2 4 1027.2 1027.2 0.0
20/05:30am 9.1 7.4 8.3 95 0.4 WNW 7 9 4 5 1027.0 1027.0 0.0
20/05:00am 10.0 8.2 9.4 96 0.3 N 9 11 5 6 1026.8 1026.8 0.0
20/04:30am 9.5 7.9 8.1 91 0.7 NNW 6 7 3 4 1026.9 1026.9 0.0
20/04:00am 10.0 8.6 8.9 93 0.5 E 6 7 3 4 1027.1 1027.1 0.0
20/03:30am 10.0 9.8 8.9 93 0.5 CALM 0 0 0 0 1027.1 1027.1 0.0
20/03:00am 10.6 10.5 9.4 92 0.6 CALM 0 0 0 0 1027.3 1027.3 0.0
20/02:30am 11.3 11.5 10.5 95 0.4 CALM 0 0 0 0 1027.5 1027.5 0.0
20/02:00am 11.5 11.7 10.6 94 0.5 CALM 0 0 0 0 1027.6 1027.6 0.0
20/01:30am 11.6 11.8 10.7 94 0.5 CALM 0 0 0 0 1027.4 1027.4 0.0
20/01:00am 12.4 12.9 11.6 95 0.4 CALM 0 0 0 0 1027.5 1027.5 0.0
20/12:30am 12.6 13.1 11.7 94 0.5 CALM 0 0 0 0 1027.6 1027.6 0.0
20/12:00am 12.4 12.9 11.5 94 0.5 CALM 0 0 0 0 1028.0 1028.0 0.0
 
Date/Time
EST
Temp
°C
App
Temp
°C
Dew
Point
°C
Rel
Hum
%
Delta-T
°C
Wind Press
QNH
hPa
Press
MSL
hPa
Rain since
9am
mm
Dir  Spd
km/h
Gust
km/h
Spd
kts
Gust
kts
19/11:30pm 12.5 12.9 11.4 93 0.6 CALM 0 0 0 0 1028.1 1028.1 0.0
19/11:00pm 13.0 13.7 12.1 94 0.5 CALM 0 0 0 0 1028.3 1028.3 0.0
19/10:30pm 12.7 13.3 11.8 94 0.5 CALM 0 0 0 0 1028.8 1028.8 0.0
19/10:00pm 13.4 13.7 12.3 93 0.6 WNW 2 6 1 3 1028.9 1028.9 0.0
19/09:30pm 14.2 14.0 13.1 93 0.6 NNE 6 7 3 4 1028.6 1028.6 0.0
19/09:00pm 14.0 14.8 12.7 92 0.7 CALM 0 0 0 0 1028.8 1028.8 0.0
19/08:30pm 14.3 15.1 12.7 90 0.9 CALM 0 0 0 0 1028.6 1028.6 0.0
19/08:00pm 14.9 15.7 12.6 86 1.3 CALM 0 0 0 0 1028.5 1028.5 0.0
19/07:30pm 16.4 16.2 13.5 83 1.6 NNE 7 9 4 5 1028.6 1028.6 0.0
19/07:00pm 17.0 16.5 13.9 82 1.7 NNE 9 11 5 6 1028.6 1028.6 0.0
19/06:30pm 17.2 17.4 14.1 82 1.8 NNE 6 9 3 5 1028.4 1028.4 0.0
19/06:00pm 18.0 18.0 14.1 78 2.2 NE 7 9 4 5 1028.1 1028.1 0.0
19/05:30pm 19.0 18.7 14.5 75 2.6 ENE 9 13 5 7 1028.0 1028.0 0.0
19/05:00pm 19.4 19.2 14.6 74 2.8 E 9 13 5 7 1027.8 1027.8 0.0
19/04:30pm 20.0 18.7 14.8 72 3.0 ESE 15 17 8 9 1027.8 1027.8 0.0
19/04:00pm 20.3 17.9 14.4 69 3.4 SE 20 24 11 13 1028.0 1028.0 0.0
19/03:30pm 21.5 20.3 15.1 67 3.8 SE 15 22 8 12 1027.9 1027.9 0.0
19/03:00pm 21.9 20.1 13.3 58 4.9 SE 15 19 8 10 1027.9 1027.9 0.0
19/02:30pm 23.5 23.0 11.9 48 6.6 N 6 11 3 6 1027.9 1027.9 0.0
19/02:00pm 22.4 21.1 11.2 49 6.2 NE 9 13 5 7 1028.0 1028.0 0.0
19/01:30pm 22.8 21.7 11.8 50 6.2 NNW 9 13 5 7 1028.4 1028.4 0.0
19/01:00pm 22.3 20.6 11.1 49 6.2 NW 11 15 6 8 1028.7 1028.7 0.0
19/12:30pm 22.2 21.5 11.9 52 5.8 WNW 7 11 4 6 1029.0 1029.0 0.0
19/12:00pm 22.1 20.9 12.9 56 5.2 WNW 11 19 6 10 1029.4 1029.4 0.0
19/11:30am 21.3 20.2 13.2 60 4.6 NW 11 15 6 8 1030.0 1030.0 0.0
19/11:00am 20.2 20.0 14.6 70 3.2 WNW 9 13 5 7 1030.4 1030.4 0.0
19/10:30am 19.4 18.9 14.9 75 2.6 NW 11 15 6 8 1030.8 1030.8 0.0
19/10:00am 17.6 16.4 13.9 79 2.1 NW 13 15 7 8 1031.0 1031.0 0.0
19/09:30am 16.4 14.9 14.1 86 1.3 WNW 15 17 8 9 1031.1 1031.1 0.0
19/09:00am 15.6 14.4 14.0 90 0.9 NW 13 19 7 10 1031.2 1031.2 0.0
19/08:30am 14.4 13.1 13.6 95 0.4 NW 13 17 7 9 1031.1 1031.1 0.0
19/08:00am 13.3 11.8 13.0 98 0.2 WNW 13 15 7 8 1030.9 1030.9 0.0
19/07:44am 12.9 11.7 12.7 99 0.1 NW 11 13 6 7 1030.8 1030.8 0.0
19/07:30am 12.4 11.0 12.2 99 0.1 NW 11 11 6 6 1030.7 1030.7 0.0
19/07:00am 11.1 9.7 10.9 99 0.1 WNW 9 9 5 5 1030.3 1030.3 0.0
19/06:30am 11.2 9.9 11.2 100 0.0 WNW 9 11 5 6 1029.9 1029.9 0.0
19/06:00am 11.5 10.3 11.5 100 0.0 NW 9 9 5 5 1029.6 1029.6 0.0
19/05:52am 11.9 10.8 11.9 100 0.0 NW 9 11 5 6 1029.5 1029.5 0.0
19/05:30am 11.1 9.3 10.9 99 0.1 NW 11 13 6 7 1029.3 1029.3 0.0
19/05:03am 10.8 8.9 10.6 99 0.1 NW 11 11 6 6 1029.1 1029.1 0.0
19/05:00am 10.7 8.8 10.4 98 0.2 NW 11 13 6 7 1029.0 1029.0 0.0
19/04:30am 10.9 9.7 10.4 97 0.3 W 7 9 4 5 1028.9 1028.9 0.0
19/04:00am 11.3 9.9 11.0 98 0.2 NW 9 11 5 6 1028.9 1028.9 0.0
19/03:30am 11.6 10.3 11.3 98 0.2 NW 9 11 5 6 1028.9 1028.9 0.0
19/03:00am 11.7 10.8 11.2 97 0.3 WSW 7 9 4 5 1029.0 1029.0 0.0
19/02:54am 11.5 10.7 11.0 97 0.3 WSW 6 7 3 4 1029.1 1029.1 0.0
19/02:30am 11.5 10.5 10.9 96 0.3 WSW 7 9 4 5 1029.1 1029.1 0.0
19/02:27am 11.4 10.3 10.8 96 0.3 WSW 7 9 4 5 1029.2 1029.2 0.0
19/02:17am 11.8 10.9 11.3 97 0.3 WSW 7 7 4 4 1029.1 1029.1 0.0
19/02:00am 12.2 11.6 11.7 97 0.3 WSW 6 9 3 5 1029.2 1029.2 0.0
19/01:59am 12.2 12.0 11.7 97 0.3 WSW 4 9 2 5 1029.2 1029.2 0.0
19/01:55am 12.1 12.2 11.6 97 0.3 WSW 2 7 1 4 1029.3 1029.3 0.0
19/01:39am 12.5 12.0 12.2 98 0.2 SSW 6 11 3 6 1029.4 1029.4 0.0
19/01:30am 11.8 11.0 11.2 96 0.3 WNW 6 11 3 6 1029.5 1029.5 0.0
19/01:09am 12.2 12.4 11.7 97 0.3 NW 2 9 1 5 1029.6 1029.6 0.0
19/01:00am 11.6 11.9 11.0 96 0.3 CALM 0 0 0 0 1029.6 1029.6 0.0
19/12:51am 11.0 11.1 10.2 95 0.4 CALM 0 4 0 2 1029.7 1029.7 0.0
19/12:33am 12.6 12.0 12.3 98 0.2 NNW 7 9 4 5 1029.7 1029.7 0.0
19/12:30am 12.4 11.7 12.1 98 0.2 NNW 7 9 4 5 1029.7 1029.7 0.0
19/12:00am 11.6 11.9 11.0 96 0.3 CALM 0 0 0 0 1029.9 1029.9 0.0
 
Date/Time
EST
Temp
°C
App
Temp
°C
Dew
Point
°C
Rel
Hum
%
Delta-T
°C
Wind Press
QNH
hPa
Press
MSL
hPa
Rain since
9am
mm
Dir  Spd
km/h
Gust
km/h
Spd
kts
Gust
kts
18/11:44pm 11.8 12.1 11.0 95 0.4 CALM 0 0 0 0 1030.1 1030.1 0.0
18/11:30pm 11.4 11.5 10.3 93 0.6 CALM 0 0 0 0 1030.3 1030.3 0.0
18/11:13pm 12.0 12.4 11.4 96 0.3 CALM 0 0 0 0 1030.2 1030.2 0.0
18/11:01pm 12.3 12.9 11.8 97 0.3 CALM 0 0 0 0 1030.1 1030.1 0.0
18/11:00pm 12.3 12.9 11.8 97 0.3 CALM 0 0 0 0 1030.1 1030.1 0.0
18/10:30pm 12.1 12.5 11.3 95 0.4 CALM 0 0 0 0 1030.1 1030.1 0.0
18/10:00pm 12.3 12.7 11.2 93 0.6 CALM 0 0 0 0 1030.3 1030.3 0.0
18/09:30pm 13.1 12.7 12.5 96 0.3 WSW 6 7 3 4 1030.1 1030.1 0.0
18/09:00pm 13.0 13.4 11.2 89 0.9 CALM 0 0 0 0 1029.9 1029.9 0.0
18/08:30pm 13.9 13.7 13.1 95 0.4 WSW 6 9 3 5 1029.6 1029.6 0.0
18/08:00pm 13.5 13.2 12.6 94 0.5 WSW 6 9 3 5 1029.4 1029.4 0.0
18/07:30pm 14.0 14.8 12.7 92 0.7 CALM 0 6 0 3 1029.2 1029.2 0.0
18/07:00pm 14.9 14.8 13.4 91 0.8 WSW 6 6 3 3 1029.0 1029.0 0.0
18/06:30pm 15.4 16.5 13.4 88 1.1 CALM 0 0 0 0 1028.8 1028.8 0.0
18/06:00pm 16.4 17.7 14.1 86 1.3 CALM 0 0 0 0 1028.7 1028.7 0.0
18/05:30pm 18.0 18.4 14.7 81 1.9 SSE 6 7 3 4 1028.5 1028.5 0.0
18/05:00pm 19.4 19.1 14.4 73 2.9 ESE 9 9 5 5 1028.2 1028.2 0.0
18/04:30pm 20.4 19.6 15.0 71 3.2 SE 13 15 7 8 1027.8 1027.8 0.0
18/04:00pm 20.9 19.7 15.0 69 3.5 SE 15 20 8 11 1027.8 1027.8 0.0
18/03:30pm 21.2 19.5 14.6 66 3.9 SE 17 24 9 13 1027.8 1027.8 0.0
18/03:00pm 21.5 19.8 14.6 65 4.0 SE 17 22 9 12 1027.7 1027.7 0.0
18/02:30pm 21.6 19.6 13.8 61 4.5 SE 17 26 9 14 1028.0 1028.0 0.0
18/02:00pm 22.0 20.1 14.1 61 4.6 SSE 17 22 9 12 1028.0 1028.0 0.0
18/01:30pm 22.1 20.9 12.9 56 5.3 SSE 11 17 6 9 1028.0 1028.0 0.0
18/01:00pm 21.8 21.3 13.7 60 4.7 ESE 9 13 5 7 1028.3 1028.3 0.0
18/12:30pm 22.1 23.0 14.0 60 4.7 NE 2 9 1 5 1028.5 1028.5 0.0
18/12:00pm 21.2 20.8 13.1 60 4.6 ESE 7 9 4 5 1028.9 1028.9 0.0
18/11:30am 20.4 20.9 14.1 67 3.6 S 4 9 2 5 1029.3 1029.3 0.0
18/11:00am 19.7 19.2 13.9 69 3.3 NW 9 13 5 7 1029.6 1029.6 0.0
18/10:30am 18.6 17.8 14.1 75 2.6 NW 11 15 6 8 1030.1 1030.1 0.0
18/10:00am 17.4 17.0 14.1 81 1.9 W 9 11 5 6 1030.2 1030.2 0.0
18/09:30am 15.6 14.2 13.4 87 1.2 WNW 13 17 7 9 1030.2 1030.2 0.0
18/09:00am 14.2 13.2 13.4 95 0.4 NW 11 15 6 8 1030.1 1030.1 0.0
18/08:31am 12.8 11.6 12.8 100 0.0 WNW 11 15 6 8 1030.0 1030.0 0.0
18/08:30am 12.7 11.5 12.7 100 0.0 WNW 11 15 6 8 1030.0 1030.0 0.0
18/08:10am 11.7 10.1 11.7 100 0.0 NW 11 13 6 7 1029.8 1029.8 0.0
18/08:00am 11.2 9.5 11.2 100 0.0 NW 11 13 6 7 1029.7 1029.7 0.0
18/07:40am 10.5 9.0 10.5 100 0.0 WNW 9 13 5 7 1029.5 1029.5 0.0
18/07:30am 10.2 8.6 10.2 100 0.0 WNW 9 11 5 6 1029.4 1029.4 0.0
18/07:00am 9.7 8.3 9.6 99 0.0 WNW 7 9 4 5 1029.2 1029.2 0.0
18/06:43am 9.6 7.8 9.5 99 0.0 NW 9 13 5 7 1029.0 1029.0 0.0
18/06:41am 9.5 7.3 9.4 99 0.0 NW 11 13 6 7 1028.9 1028.9 0.0
18/06:32am 9.2 6.9 9.1 99 0.0 NW 11 11 6 6 1028.8 1028.8 0.0
18/06:31am 9.2 6.9 9.1 99 0.0 NW 11 11 6 6 1028.8 1028.8 0.0
18/06:30am 9.1 6.8 9.0 99 0.0 NW 11 11 6 6 1028.8 1028.8 0.0
18/06:00am 9.0 6.6 8.7 98 0.1 NW 11 13 6 7 1028.4 1028.4 0.0
18/05:40am 8.8 8.4 8.2 96 0.3 CALM 0 0 0 0 1028.2 1028.2 0.0
18/05:30am 9.1 8.8 8.5 96 0.3 CALM 0 0 0 0 1028.1 1028.1 0.0
18/05:29am 9.1 8.8 8.5 96 0.3 CALM 0 0 0 0 1028.0 1028.0 0.0
18/05:08am 9.4 9.2 8.9 97 0.2 CALM 0 0 0 0 1027.9 1027.9 0.0
18/05:02am 9.2 8.9 8.7 97 0.2 CALM 0 0 0 0 1027.9 1027.9 0.0
18/05:00am 9.2 8.9 8.7 97 0.2 CALM 0 0 0 0 1027.8 1027.8 0.0
18/04:50am 9.5 9.3 9.2 98 0.1 CALM 0 0 0 0 1027.7 1027.7 0.0
18/04:30am 9.5 9.3 9.2 98 0.1 CALM 0 0 0 0 1027.7 1027.7 0.0
18/04:00am 9.4 9.3 9.3 99 0.0 CALM 0 0 0 0 1027.6 1027.6 0.0
18/03:30am 10.3 9.6 10.0 98 0.2 WNW 4 7 2 4 1027.6 1027.6 0.0
18/03:25am 9.9 8.5 9.4 97 0.2 NW 7 9 4 5 1027.6 1027.6 0.0
18/03:19am 9.8 8.3 9.3 97 0.2 NW 7 9 4 5 1027.6 1027.6 0.0
18/03:00am 9.6 8.1 9.0 96 0.3 W 7 7 4 4 1027.7 1027.7 0.0
18/02:55am 9.7 8.4 9.1 96 0.3 WSW 6 7 3 4 1027.7 1027.7 0.0
18/02:39am 9.5 8.8 8.6 94 0.4 SSE 2 6 1 3 1027.6 1027.6 0.0
18/02:30am 10.2 10.1 9.3 94 0.4 CALM 0 0 0 0 1027.6 1027.6 0.0
18/02:00am 10.4 8.9 9.3 93 0.5 SE 7 9 4 5 1027.7 1027.7 0.0
18/01:30am 11.1 11.2 10.3 95 0.4 CALM 0 0 0 0 1027.6 1027.6 0.0
18/01:00am 10.9 10.9 9.8 93 0.6 CALM 0 0 0 0 1027.4 1027.4 0.0
18/12:30am 11.2 11.3 10.0 92 0.6 CALM 0 0 0 0 1027.6 1027.6 0.0
18/12:00am 12.0 12.4 11.1 94 0.5 CALM 0 0 0 0 1027.8 1027.8 0.0
 
Date/Time
EST
Temp
°C
App
Temp
°C
Dew
Point
°C
Rel
Hum
%
Delta-T
°C
Wind Press
QNH
hPa
Press
MSL
hPa
Rain since
9am
mm
Dir  Spd
km/h
Gust
km/h
Spd
kts
Gust
kts
17/11:30pm 12.6 13.2 12.0 96 0.3 CALM 0 0 0 0 1028.0 1028.0 0.0

Other formats

Comma delimited format used in spreadsheet applications
http://www.bom.gov.au/fwo/IDN60801/IDN60801.94776.axf

JavaScript Object Notation format (JSON) in row-major order
http://www.bom.gov.au/fwo/IDN60801/IDN60801.94776.json

Data quality

Most of these data are generated automatically and are frequently updated. Quality checks on data are not normally performed. It is possible for incorrect values to appear. Refer to information at About Latest Weather Observations and please check the disclaimer before using these data.